Time;durP1;ratioP1;P1;durP2;ratioP2;P2;SDS_P1;SDS_P2;PMS_P1;PMS_P2;Temp;Humidity;BMP_temperature;BMP_pressure;BME280_temperature;BME280_humidity;BME280_pressure;Samples;Min_cycle;Max_cycle;Signal;HPM_P1;HPM_P2
2023/07/26 00:01:37;;;;;;;;;;;13.40;99.90;;;;;;5137070;27;19915;-42
2023/07/26 00:04:04;;;;;;;;;;;13.40;99.90;;;;;;5136202;27;19907;-46
2023/07/26 00:06:30;;;;;;;;;;;13.40;99.90;;;;;;5136985;27;19908;-43
2023/07/26 00:08:55;;;;;;;;;;;13.40;99.90;;;;;;5136962;27;19907;-42
2023/07/26 00:11:21;;;;;;;;;;;13.30;99.90;;;;;;5136055;27;19914;-45
2023/07/26 00:13:47;;;;;;;;;;;13.30;99.90;;;;;;5137147;27;19908;-42
2023/07/26 00:16:12;;;;;;;;;;;13.30;99.90;;;;;;5136949;27;19908;-43
2023/07/26 00:18:39;;;;;;;;;;;13.30;99.90;;;;;;5135910;27;20297;-41
2023/07/26 00:21:04;;;;;;;;;;;13.30;99.90;;;;;;5136834;27;19962;-41
2023/07/26 00:23:30;;;;;;;;;;;13.30;99.90;;;;;;5136625;27;19946;-44
2023/07/26 00:25:56;;;;;;;;;;;13.30;99.90;;;;;;5135879;27;19914;-43
2023/07/26 00:28:21;;;;;;;;;;;13.30;99.90;;;;;;5136585;27;20500;-43
2023/07/26 00:30:48;;;;;;;;;;;13.30;99.90;;;;;;5136521;27;19907;-42
2023/07/26 00:33:13;;;;;;;;;;;13.20;99.90;;;;;;5134320;27;19908;-44
2023/07/26 00:35:39;;;;;;;;;;;13.20;99.90;;;;;;5141338;27;20006;-43
2023/07/26 00:38:05;;;;;;;;;;;13.30;99.90;;;;;;5157079;27;20066;-45
2023/07/26 00:40:31;;;;;;;;;;;13.30;99.90;;;;;;5156204;27;19956;-42
2023/07/26 00:42:56;;;;;;;;;;;13.30;99.90;;;;;;5136923;27;19927;-42
2023/07/26 00:45:22;;;;;;;;;;;13.30;99.90;;;;;;5156537;27;19964;-42
2023/07/26 00:47:47;;;;;;;;;;;13.30;99.90;;;;;;5156147;27;19914;-44
2023/07/26 00:50:13;;;;;;;;;;;13.30;99.90;;;;;;5156683;27;19907;-45
2023/07/26 00:52:39;;;;;;;;;;;13.40;99.90;;;;;;5156105;27;20342;-46
2023/07/26 00:55:05;;;;;;;;;;;13.30;99.90;;;;;;5156687;27;19965;-43
2023/07/26 00:57:31;;;;;;;;;;;13.30;99.90;;;;;;5156441;27;20257;-42
2023/07/26 00:59:57;;;;;;;;;;;13.30;99.90;;;;;;5147745;27;20179;-42
2023/07/26 01:02:22;;;;;;;;;;;13.30;99.90;;;;;;5146600;27;19918;-41
2023/07/26 01:04:48;;;;;;;;;;;13.30;99.90;;;;;;5149983;27;19915;-42
2023/07/26 01:07:20;;;;;;;;;;;13.30;99.90;;;;;;5147587;27;19911;-43
2023/07/26 01:09:55;;;;;;;;;;;13.30;99.90;;;;;;5135846;27;19958;-41
2023/07/26 01:12:28;;;;;;;;;;;13.30;99.90;;;;;;5138106;27;20419;-42
2023/07/26 01:14:58;;;;;;;;;;;13.30;99.90;;;;;;5155873;27;19989;-41
2023/07/26 01:17:23;;;;;;;;;;;13.30;99.90;;;;;;5156440;27;19942;-45
2023/07/26 01:19:49;;;;;;;;;;;13.30;99.90;;;;;;5156281;27;19969;-44
2023/07/26 01:22:14;;;;;;;;;;;13.30;99.90;;;;;;5155627;27;19907;-43
2023/07/26 01:24:40;;;;;;;;;;;13.30;99.90;;;;;;5145133;27;20362;-43
2023/07/26 01:27:05;;;;;;;;;;;13.20;99.90;;;;;;5135623;27;19908;-42
2023/07/26 01:29:31;;;;;;;;;;;13.20;99.90;;;;;;5134806;27;20286;-46
2023/07/26 01:31:57;;;;;;;;;;;13.20;99.90;;;;;;5135351;27;19950;-42
2023/07/26 01:34:22;;;;;;;;;;;13.20;99.90;;;;;;5135389;27;19943;-43
2023/07/26 01:36:49;;;;;;;;;;;13.20;99.90;;;;;;5134767;27;19907;-42
2023/07/26 01:39:15;;;;;;;;;;;13.20;99.90;;;;;;5135287;27;19919;-43
2023/07/26 01:41:41;;;;;;;;;;;13.20;99.90;;;;;;5148239;27;19957;-43
2023/07/26 01:44:06;;;;;;;;;;;13.20;99.90;;;;;;5154747;27;19958;-43
2023/07/26 01:46:32;;;;;;;;;;;13.30;99.90;;;;;;5155817;27;19907;-41
2023/07/26 01:48:57;;;;;;;;;;;13.20;99.90;;;;;;5155009;27;20006;-44
2023/07/26 01:51:23;;;;;;;;;;;13.20;99.90;;;;;;5155759;27;19911;-44
2023/07/26 01:53:48;;;;;;;;;;;13.20;99.90;;;;;;5155728;27;20449;-44
2023/07/26 01:56:14;;;;;;;;;;;13.20;99.90;;;;;;5155022;27;19907;-40
2023/07/26 01:58:39;;;;;;;;;;;13.20;99.90;;;;;;5155496;27;19966;-42
2023/07/26 02:01:05;;;;;;;;;;;13.20;99.90;;;;;;5145459;27;19941;-43
2023/07/26 02:03:31;;;;;;;;;;;13.10;99.90;;;;;;5134009;27;19907;-43
2023/07/26 02:05:56;;;;;;;;;;;13.10;99.90;;;;;;5134726;27;19908;-42
2023/07/26 02:08:21;;;;;;;;;;;13.10;99.90;;;;;;5134721;27;19908;-43
2023/07/26 02:10:47;;;;;;;;;;;13.10;99.90;;;;;;5133872;27;20068;-42
2023/07/26 02:13:13;;;;;;;;;;;13.00;99.90;;;;;;5134588;27;19908;-43
2023/07/26 02:15:39;;;;;;;;;;;13.00;99.90;;;;;;5134472;27;20218;-42
2023/07/26 02:18:05;;;;;;;;;;;13.00;99.90;;;;;;5133571;27;20289;-42
2023/07/26 02:20:30;;;;;;;;;;;13.00;99.90;;;;;;5134348;27;20354;-42
2023/07/26 02:22:56;;;;;;;;;;;12.90;99.90;;;;;;5134425;27;19911;-43
2023/07/26 02:25:21;;;;;;;;;;;12.90;99.90;;;;;;5133613;27;19908;-44
2023/07/26 02:27:47;;;;;;;;;;;12.90;99.90;;;;;;5134330;27;20442;-44
2023/07/26 02:30:12;;;;;;;;;;;12.80;99.90;;;;;;5134452;27;20002;-42
2023/07/26 02:32:38;;;;;;;;;;;12.80;99.90;;;;;;5133530;27;19911;-43
2023/07/26 02:35:03;;;;;;;;;;;12.80;99.90;;;;;;5134330;27;20006;-43
2023/07/26 02:37:29;;;;;;;;;;;12.80;99.90;;;;;;5134334;27;19907;-42
2023/07/26 02:39:54;;;;;;;;;;;12.70;99.90;;;;;;5133359;27;20412;-43
2023/07/26 02:42:20;;;;;;;;;;;12.70;99.90;;;;;;5133800;27;19967;-42
2023/07/26 02:44:47;;;;;;;;;;;12.70;99.90;;;;;;5134227;27;19908;-44
2023/07/26 02:47:12;;;;;;;;;;;12.70;99.90;;;;;;5133324;27;19912;-42
2023/07/26 02:49:38;;;;;;;;;;;12.70;99.90;;;;;;5133979;27;19963;-42
2023/07/26 02:52:03;;;;;;;;;;;12.60;99.90;;;;;;5133983;27;19915;-41
2023/07/26 02:54:29;;;;;;;;;;;12.60;99.90;;;;;;5132966;27;20281;-42
2023/07/26 02:56:54;;;;;;;;;;;12.60;99.90;;;;;;5133371;27;19918;-42
2023/07/26 02:59:20;;;;;;;;;;;12.50;99.90;;;;;;5133084;27;19916;-43
2023/07/26 03:01:45;;;;;;;;;;;12.50;99.90;;;;;;5133403;27;19918;-42
2023/07/26 03:04:11;;;;;;;;;;;12.40;99.90;;;;;;5133796;27;19907;-43
2023/07/26 03:06:37;;;;;;;;;;;12.40;99.90;;;;;;5132863;27;19918;-42
2023/07/26 03:09:02;;;;;;;;;;;12.40;99.90;;;;;;5133785;28;19953;-42
2023/07/26 03:11:28;;;;;;;;;;;12.40;99.90;;;;;;5133751;28;19961;-42
2023/07/26 03:13:55;;;;;;;;;;;12.40;99.90;;;;;;5133979;27;19985;-41
2023/07/26 03:16:21;;;;;;;;;;;12.30;99.90;;;;;;5135406;27;19955;-42
2023/07/26 03:18:46;;;;;;;;;;;12.40;99.90;;;;;;5153924;27;19950;-43
2023/07/26 03:21:12;;;;;;;;;;;12.30;99.90;;;;;;5153353;27;20331;-43
2023/07/26 03:23:37;;;;;;;;;;;12.30;99.90;;;;;;5137003;27;20021;-42
2023/07/26 03:26:03;;;;;;;;;;;12.40;99.90;;;;;;5133707;28;19915;-42
2023/07/26 03:28:28;;;;;;;;;;;12.40;99.90;;;;;;5132732;27;20389;-42
2023/07/26 03:30:54;;;;;;;;;;;12.40;99.90;;;;;;5133576;28;19907;-42
2023/07/26 03:33:19;;;;;;;;;;;12.40;99.90;;;;;;5116247;27;19942;-41
2023/07/26 03:35:45;;;;;;;;;;;12.30;99.90;;;;;;5119122;28;20366;-43
2023/07/26 03:38:10;;;;;;;;;;;12.40;99.90;;;;;;5133147;28;19964;-43
2023/07/26 03:40:36;;;;;;;;;;;12.40;99.90;;;;;;5133348;28;20419;-41
2023/07/26 03:43:02;;;;;;;;;;;12.40;99.90;;;;;;5132531;28;19919;-42
2023/07/26 03:45:27;;;;;;;;;;;12.40;99.90;;;;;;5133342;28;20285;-42
2023/07/26 03:47:53;;;;;;;;;;;12.40;99.90;;;;;;5133360;28;19919;-43
2023/07/26 03:50:19;;;;;;;;;;;12.50;99.90;;;;;;5132598;28;19911;-43
2023/07/26 03:52:45;;;;;;;;;;;12.50;99.90;;;;;;5133190;28;20273;-45
2023/07/26 03:55:12;;;;;;;;;;;12.50;99.90;;;;;;5132662;28;21596;-43
2023/07/26 03:57:38;;;;;;;;;;;12.60;99.90;;;;;;5132463;28;20017;-44
2023/07/26 04:00:04;;;;;;;;;;;12.60;99.90;;;;;;5133218;28;20319;-42
2023/07/26 04:02:31;;;;;;;;;;;12.50;99.90;;;;;;5133134;28;20357;-43
2023/07/26 04:04:56;;;;;;;;;;;12.60;99.90;;;;;;5132753;28;19933;-43
2023/07/26 04:07:22;;;;;;;;;;;12.60;99.90;;;;;;5135287;27;19908;-41
2023/07/26 04:09:47;;;;;;;;;;;12.60;99.90;;;;;;5136275;27;19907;-44
2023/07/26 04:12:13;;;;;;;;;;;12.60;99.90;;;;;;5116356;27;20410;-43
2023/07/26 04:14:38;;;;;;;;;;;12.70;99.90;;;;;;5123828;27;19921;-43
2023/07/26 04:17:04;;;;;;;;;;;12.70;99.90;;;;;;5136023;27;19907;-44
2023/07/26 04:19:29;;;;;;;;;;;12.80;99.90;;;;;;5136759;27;19915;-43
2023/07/26 04:21:55;;;;;;;;;;;12.80;99.90;;;;;;5136773;27;19919;-42
2023/07/26 04:24:20;;;;;;;;;;;12.80;99.90;;;;;;5127822;27;19908;-43
2023/07/26 04:26:46;;;;;;;;;;;12.80;99.90;;;;;;5136669;27;19932;-43
2023/07/26 04:29:11;;;;;;;;;;;12.80;99.90;;;;;;5136609;27;19907;-43
2023/07/26 04:31:37;;;;;;;;;;;12.90;99.90;;;;;;5135695;27;19915;-45
2023/07/26 04:34:02;;;;;;;;;;;12.90;99.90;;;;;;5136572;27;20041;-43
2023/07/26 04:36:28;;;;;;;;;;;12.80;99.90;;;;;;5136531;27;19982;-42
2023/07/26 04:38:53;;;;;;;;;;;12.80;99.90;;;;;;5135778;27;19920;-45
2023/07/26 04:41:19;;;;;;;;;;;12.80;99.90;;;;;;5136807;27;19907;-42
2023/07/26 04:43:44;;;;;;;;;;;12.80;99.90;;;;;;5136272;27;20377;-43
2023/07/26 04:46:11;;;;;;;;;;;12.80;99.90;;;;;;5135609;27;19912;-43
2023/07/26 04:48:37;;;;;;;;;;;12.70;99.90;;;;;;5133428;27;19908;-43
2023/07/26 04:51:02;;;;;;;;;;;12.70;99.90;;;;;;5136272;27;19911;-41
2023/07/26 04:53:28;;;;;;;;;;;12.80;99.90;;;;;;5118497;27;19937;-41
2023/07/26 04:55:55;;;;;;;;;;;12.80;99.90;;;;;;5115652;28;19916;-41
2023/07/26 04:58:20;;;;;;;;;;;12.80;99.90;;;;;;5115543;28;20358;-42
2023/07/26 05:00:46;;;;;;;;;;;12.80;99.90;;;;;;5114687;28;19915;-42
2023/07/26 05:03:12;;;;;;;;;;;12.80;99.90;;;;;;5121785;27;19907;-44
2023/07/26 05:05:37;;;;;;;;;;;12.90;99.90;;;;;;5135842;27;19998;-42
2023/07/26 05:08:04;;;;;;;;;;;12.90;99.90;;;;;;5128308;27;19912;-41
2023/07/26 05:10:30;;;;;;;;;;;12.90;99.90;;;;;;5121311;27;19965;-43
2023/07/26 05:12:56;;;;;;;;;;;12.90;99.90;;;;;;5114482;28;19950;-44
2023/07/26 05:15:21;;;;;;;;;;;13.00;99.90;;;;;;5115126;28;19908;-43
2023/07/26 05:17:47;;;;;;;;;;;13.00;99.90;;;;;;5114200;28;20381;-41
2023/07/26 05:20:12;;;;;;;;;;;13.00;99.90;;;;;;5129435;27;20230;-43
2023/07/26 05:22:38;;;;;;;;;;;13.00;99.90;;;;;;5135604;27;20454;-43
2023/07/26 05:25:04;;;;;;;;;;;13.10;99.90;;;;;;5135659;27;19915;-43
2023/07/26 05:27:29;;;;;;;;;;;13.10;99.90;;;;;;5134796;27;20006;-41
2023/07/26 05:29:57;;;;;;;;;;;13.10;99.90;;;;;;5135422;27;19911;-43
2023/07/26 05:32:25;;;;;;;;;;;13.20;99.90;;;;;;5135379;27;19911;-42
2023/07/26 05:34:55;;;;;;;;;;;13.20;99.90;;;;;;5134691;27;19935;-42
2023/07/26 05:37:20;;;;;;;;;;;13.30;99.90;;;;;;5135367;27;19907;-42
2023/07/26 05:39:47;;;;;;;;;;;13.30;99.90;;;;;;5131763;27;20008;-44
2023/07/26 05:42:13;;;;;;;;;;;13.30;99.90;;;;;;5122814;27;20014;-43
2023/07/26 05:44:39;;;;;;;;;;;13.40;99.90;;;;;;5126109;27;19955;-42
2023/07/26 05:47:04;;;;;;;;;;;13.40;99.90;;;;;;5123483;27;19998;-43
2023/07/26 05:49:30;;;;;;;;;;;13.30;99.90;;;;;;5113714;28;20403;-41
2023/07/26 05:51:55;;;;;;;;;;;13.30;99.90;;;;;;5114552;28;19961;-41
2023/07/26 05:54:21;;;;;;;;;;;13.30;99.90;;;;;;5114421;28;19933;-43
2023/07/26 05:56:46;;;;;;;;;;;13.20;99.90;;;;;;5124384;27;20351;-45
2023/07/26 05:59:12;;;;;;;;;;;13.20;99.90;;;;;;5132466;27;19925;-43
2023/07/26 06:01:37;;;;;;;;;;;13.20;99.90;;;;;;5134814;27;20266;-45
2023/07/26 06:04:03;;;;;;;;;;;13.20;99.90;;;;;;5134104;27;19914;-43
2023/07/26 06:06:29;;;;;;;;;;;13.20;99.90;;;;;;5134793;27;19919;-42
2023/07/26 06:08:54;;;;;;;;;;;13.20;99.90;;;;;;5134823;27;19915;-43
2023/07/26 06:11:20;;;;;;;;;;;13.30;99.90;;;;;;5133972;27;19915;-43
2023/07/26 06:13:45;;;;;;;;;;;13.30;99.90;;;;;;5134631;27;20262;-45
2023/07/26 06:16:11;;;;;;;;;;;13.30;99.90;;;;;;5144036;27;20389;-43
2023/07/26 06:18:37;;;;;;;;;;;13.40;99.90;;;;;;5129133;27;19988;-44
2023/07/26 06:21:02;;;;;;;;;;;13.40;99.90;;;;;;5136619;27;19926;-43
2023/07/26 06:23:28;;;;;;;;;;;13.40;99.90;;;;;;5137585;27;20440;-43
2023/07/26 06:25:53;;;;;;;;;;;13.40;99.90;;;;;;5133678;27;19907;-42
2023/07/26 06:28:19;;;;;;;;;;;13.40;99.90;;;;;;5129637;27;20419;-46
2023/07/26 06:30:44;;;;;;;;;;;13.50;99.90;;;;;;5114754;27;19923;-43
2023/07/26 06:33:10;;;;;;;;;;;13.60;99.90;;;;;;5113739;28;19908;-43
2023/07/26 06:35:35;;;;;;;;;;;13.70;99.90;;;;;;5113711;28;20323;-46
2023/07/26 06:38:01;;;;;;;;;;;13.70;99.90;;;;;;5112609;28;19915;-43
2023/07/26 06:40:26;;;;;;;;;;;13.80;99.90;;;;;;5128590;27;19915;-43
2023/07/26 06:42:52;;;;;;;;;;;13.80;99.90;;;;;;5133850;27;19919;-43
2023/07/26 06:45:17;;;;;;;;;;;13.90;99.90;;;;;;5132931;27;20025;-42
2023/07/26 06:47:43;;;;;;;;;;;13.90;99.90;;;;;;5133311;27;19952;-43
2023/07/26 06:50:08;;;;;;;;;;;13.90;99.90;;;;;;5128334;27;20570;-43
2023/07/26 06:52:34;;;;;;;;;;;14.00;99.90;;;;;;5130235;27;19911;-43
2023/07/26 06:55:00;;;;;;;;;;;13.90;99.90;;;;;;5126255;27;20289;-42
2023/07/26 06:57:25;;;;;;;;;;;14.00;99.90;;;;;;5129814;27;19994;-46
2023/07/26 06:59:51;;;;;;;;;;;14.00;99.90;;;;;;5124673;27;21618;-42
2023/07/26 07:02:16;;;;;;;;;;;14.00;99.90;;;;;;5127281;28;20405;-43
2023/07/26 07:04:42;;;;;;;;;;;14.00;99.90;;;;;;5131499;27;19907;-44
2023/07/26 07:07:07;;;;;;;;;;;14.00;99.90;;;;;;5130902;27;19977;-43
2023/07/26 07:09:32;;;;;;;;;;;14.00;99.90;;;;;;5132618;27;19907;-43
2023/07/26 07:11:58;;;;;;;;;;;14.10;99.90;;;;;;5127557;28;19930;-42
2023/07/26 07:14:24;;;;;;;;;;;14.10;99.90;;;;;;5127927;28;19912;-44
2023/07/26 07:16:49;;;;;;;;;;;14.10;99.90;;;;;;5127458;28;20338;-42
2023/07/26 07:19:15;;;;;;;;;;;14.10;99.90;;;;;;5130275;28;19915;-43
2023/07/26 07:21:41;;;;;;;;;;;14.10;99.90;;;;;;5120421;28;19922;-43
2023/07/26 07:24:06;;;;;;;;;;;14.10;99.90;;;;;;5128679;28;19919;-43
2023/07/26 07:26:32;;;;;;;;;;;14.10;99.90;;;;;;5129243;28;20380;-48
2023/07/26 07:28:57;;;;;;;;;;;14.00;99.90;;;;;;5130772;28;19912;-49
2023/07/26 07:31:23;;;;;;;;;;;14.00;99.90;;;;;;5129263;28;19912;-43
2023/07/26 07:33:48;;;;;;;;;;;13.90;99.90;;;;;;5121090;28;19922;-43
2023/07/26 07:36:17;;;;;;;;;;;13.90;99.90;;;;;;5123305;28;20290;-44
2023/07/26 07:38:46;;;;;;;;;;;13.80;99.90;;;;;;5132402;28;19984;-44
2023/07/26 07:41:12;;;;;;;;;;;13.90;99.90;;;;;;5119439;28;20421;-41
2023/07/26 07:43:38;;;;;;;;;;;13.80;99.90;;;;;;5116807;28;19970;-41
2023/07/26 07:46:04;;;;;;;;;;;13.80;99.90;;;;;;5116882;28;19912;-45
2023/07/26 07:48:29;;;;;;;;;;;13.80;99.90;;;;;;5116103;28;20011;-43
2023/07/26 07:50:55;;;;;;;;;;;13.70;99.90;;;;;;5116881;28;19908;-43
2023/07/26 07:53:21;;;;;;;;;;;13.70;99.90;;;;;;5116886;28;19934;-43
2023/07/26 07:55:46;;;;;;;;;;;13.60;99.90;;;;;;5120729;27;20285;-43
2023/07/26 07:58:12;;;;;;;;;;;13.50;99.90;;;;;;5136862;27;19920;-43
2023/07/26 08:00:37;;;;;;;;;;;13.40;99.90;;;;;;5137245;27;19919;-46
2023/07/26 08:03:03;;;;;;;;;;;13.30;99.90;;;;;;5136547;27;19915;-45
2023/07/26 08:05:29;;;;;;;;;;;13.20;99.90;;;;;;5136823;27;20471;-49
2023/07/26 08:07:54;;;;;;;;;;;13.00;99.90;;;;;;5122398;27;19908;-48
2023/07/26 08:10:20;;;;;;;;;;;12.80;99.90;;;;;;5125497;27;19936;-46
2023/07/26 08:12:46;;;;;;;;;;;12.80;99.90;;;;;;5128234;27;19915;-45
2023/07/26 08:15:12;;;;;;;;;;;12.70;99.90;;;;;;5132989;27;19908;-45
2023/07/26 08:17:37;;;;;;;;;;;12.80;99.90;;;;;;5123125;27;19947;-45
2023/07/26 08:20:04;;;;;;;;;;;12.90;99.90;;;;;;5118177;27;19920;-46
2023/07/26 08:22:29;;;;;;;;;;;12.90;99.90;;;;;;5113839;27;19926;-48
2023/07/26 08:24:55;;;;;;;;;;;13.10;99.90;;;;;;5115179;27;19907;-46
2023/07/26 08:27:21;;;;;;;;;;;13.10;99.90;;;;;;5129915;27;20262;-46
2023/07/26 08:29:46;;;;;;;;;;;13.20;99.90;;;;;;5136557;27;19918;-45
2023/07/26 08:32:12;;;;;;;;;;;13.20;99.90;;;;;;5135968;27;19912;-45
2023/07/26 08:34:37;;;;;;;;;;;13.30;99.90;;;;;;5135961;27;19916;-46
2023/07/26 08:37:03;;;;;;;;;;;13.40;99.90;;;;;;5135367;27;20425;-45
2023/07/26 08:39:28;;;;;;;;;;;13.40;99.90;;;;;;5133842;27;19923;-45
2023/07/26 08:41:54;;;;;;;;;;;13.50;99.90;;;;;;5122124;27;20572;-46
2023/07/26 08:44:19;;;;;;;;;;;13.60;99.90;;;;;;5114269;28;19907;-46
2023/07/26 08:46:47;;;;;;;;;;;13.70;99.90;;;;;;5125442;27;20068;-44
2023/07/26 08:49:12;;;;;;;;;;;13.80;99.90;;;;;;5119587;27;20374;-46
2023/07/26 08:51:38;;;;;;;;;;;13.90;99.90;;;;;;5116886;27;19918;-46
2023/07/26 08:54:04;;;;;;;;;;;14.00;99.90;;;;;;5117604;27;20289;-45
2023/07/26 08:56:29;;;;;;;;;;;14.10;99.90;;;;;;5134938;27;19911;-45
2023/07/26 08:58:55;;;;;;;;;;;14.20;99.90;;;;;;5130256;27;19919;-47
2023/07/26 09:01:21;;;;;;;;;;;14.20;99.90;;;;;;5119445;27;19912;-45
2023/07/26 09:03:47;;;;;;;;;;;14.20;99.90;;;;;;5134172;27;19914;-44
2023/07/26 09:06:12;;;;;;;;;;;14.20;99.90;;;;;;5118832;27;19915;-44
2023/07/26 09:08:38;;;;;;;;;;;14.20;99.90;;;;;;5096342;27;19907;-44
2023/07/26 09:11:23;;;;;;;;;;;14.20;99.90;;;;;;5121531;27;19911;-45
2023/07/26 09:13:52;;;;;;;;;;;14.20;99.90;;;;;;5116521;27;19912;-43
2023/07/26 09:16:18;;;;;;;;;;;14.40;99.90;;;;;;5118180;27;19946;-47
2023/07/26 09:18:56;;;;;;;;;;;14.50;99.90;;;;;;5120808;27;20391;-43
2023/07/26 09:21:28;;;;;;;;;;;14.60;99.90;;;;;;5121540;27;20052;-46
2023/07/26 09:23:55;;;;;;;;;;;14.70;99.90;;;;;;5116949;27;20281;-45
2023/07/26 09:26:41;;;;;;;;;;;14.90;99.90;;;;;;5126011;27;19951;-44
2023/07/26 09:29:09;;;;;;;;;;;15.00;99.90;;;;;;5133340;27;20243;-44
2023/07/26 09:31:35;;;;;;;;;;;15.10;99.90;;;;;;5133353;27;20414;-44
2023/07/26 09:34:08;;;;;;;;;;;15.20;99.90;;;;;;5129279;27;19915;-45
2023/07/26 09:36:41;;;;;;;;;;;15.30;99.90;;;;;;5134604;27;20323;-44
2023/07/26 09:39:08;;;;;;;;;;;15.30;99.90;;;;;;5133696;27;19916;-45
2023/07/26 09:41:34;;;;;;;;;;;15.30;99.90;;;;;;5135841;27;19913;-43
2023/07/26 09:43:59;;;;;;;;;;;15.40;99.90;;;;;;5092872;28;19932;-44
2023/07/26 09:46:25;;;;;;;;;;;15.50;99.90;;;;;;5113079;28;20010;-44
2023/07/26 09:48:57;;;;;;;;;;;15.60;99.90;;;;;;5113690;28;19908;-44
2023/07/26 09:51:24;;;;;;;;;;;15.80;99.90;;;;;;5099076;28;19912;-44
2023/07/26 09:53:50;;;;;;;;;;;15.90;99.90;;;;;;5094640;28;19916;-44
2023/07/26 09:56:16;;;;;;;;;;;16.10;99.90;;;;;;5094316;28;19915;-43
2023/07/26 09:58:42;;;;;;;;;;;16.20;99.90;;;;;;5094545;28;19994;-44
2023/07/26 10:01:11;;;;;;;;;;;16.40;99.90;;;;;;5094647;28;19930;-46
2023/07/26 10:03:39;;;;;;;;;;;16.60;99.90;;;;;;5103300;28;19919;-43
2023/07/26 10:06:05;;;;;;;;;;;16.70;99.90;;;;;;5113768;28;19908;-46
2023/07/26 10:08:31;;;;;;;;;;;16.90;99.90;;;;;;5113326;28;19908;-44
2023/07/26 10:10:57;;;;;;;;;;;17.00;99.90;;;;;;5114626;27;19907;-46
2023/07/26 10:13:24;;;;;;;;;;;17.00;99.90;;;;;;5105272;27;19916;-44
2023/07/26 10:15:50;;;;;;;;;;;17.00;99.90;;;;;;5115004;27;19920;-44
2023/07/26 10:18:17;;;;;;;;;;;17.00;99.90;;;;;;5116425;27;19912;-44
2023/07/26 10:20:43;;;;;;;;;;;16.90;99.90;;;;;;5112827;28;19916;-43
2023/07/26 10:23:10;;;;;;;;;;;16.80;99.90;;;;;;5103628;28;19919;-46
2023/07/26 10:25:36;;;;;;;;;;;16.80;99.90;;;;;;5105057;28;20247;-43
2023/07/26 10:28:02;;;;;;;;;;;16.70;99.90;;;;;;5113713;28;19930;-44
2023/07/26 10:30:28;;;;;;;;;;;16.60;99.90;;;;;;5108489;28;20449;-43
2023/07/26 10:32:54;;;;;;;;;;;16.60;99.90;;;;;;5099165;28;19920;-44
2023/07/26 10:35:29;;;;;;;;;;;16.80;99.90;;;;;;5102879;28;20404;-44
2023/07/26 10:37:59;;;;;;;;;;;16.90;99.90;;;;;;5112336;28;19930;-43
2023/07/26 10:40:38;;;;;;;;;;;17.00;99.90;;;;;;5112861;28;19958;-45
2023/07/26 10:43:16;;;;;;;;;;;17.10;99.90;;;;;;5120332;27;19925;-46
2023/07/26 10:45:44;;;;;;;;;;;17.30;99.90;;;;;;5132026;27;20006;-44
2023/07/26 10:48:13;;;;;;;;;;;17.50;99.90;;;;;;5129861;27;19921;-46
2023/07/26 10:50:39;;;;;;;;;;;17.70;99.90;;;;;;5116077;27;19915;-45
2023/07/26 10:53:23;;;;;;;;;;;17.70;99.90;;;;;;5130089;27;20280;-45
2023/07/26 10:55:52;;;;;;;;;;;17.70;99.90;;;;;;5131530;27;19937;-45
2023/07/26 10:58:17;;;;;;;;;;;17.80;99.90;;;;;;5132319;27;19919;-44
2023/07/26 11:00:45;;;;;;;;;;;17.90;99.90;;;;;;5113773;27;20277;-45
2023/07/26 11:03:11;;;;;;;;;;;18.10;99.90;;;;;;5120795;28;20303;-44
2023/07/26 11:05:38;;;;;;;;;;;18.20;99.90;;;;;;5132446;27;20345;-43
2023/07/26 11:08:07;;;;;;;;;;;18.20;99.90;;;;;;5133812;27;19912;-44
2023/07/26 11:10:34;;;;;;;;;;;18.40;99.90;;;;;;5134220;27;20304;-43
2023/07/26 11:13:13;;;;;;;;;;;18.30;99.90;;;;;;5134240;27;19918;-43
2023/07/26 11:15:42;;;;;;;;;;;18.40;99.90;;;;;;5132958;27;19907;-45
2023/07/26 11:18:08;;;;;;;;;;;18.60;99.90;;;;;;5132556;27;19982;-44
2023/07/26 11:20:38;;;;;;;;;;;18.40;99.90;;;;;;5113969;28;19951;-44
2023/07/26 11:23:14;;;;;;;;;;;18.40;99.90;;;;;;5111820;28;19912;-42
2023/07/26 11:25:39;;;;;;;;;;;18.30;99.90;;;;;;5110360;28;19912;-44
2023/07/26 11:28:05;;;;;;;;;;;18.10;99.90;;;;;;5127105;28;19961;-42
2023/07/26 11:30:31;;;;;;;;;;;17.60;99.90;;;;;;5132358;28;19907;-43
2023/07/26 11:32:56;;;;;;;;;;;17.00;99.90;;;;;;5126126;28;19912;-44
2023/07/26 11:35:23;;;;;;;;;;;16.50;99.90;;;;;;5111694;28;19933;-43
2023/07/26 11:37:55;;;;;;;;;;;16.00;99.90;;;;;;5129518;28;19915;-42
2023/07/26 11:40:21;;;;;;;;;;;15.90;99.90;;;;;;5131263;28;19919;-46
2023/07/26 11:42:48;;;;;;;;;;;15.90;99.90;;;;;;5120615;27;19973;-45
2023/07/26 11:45:15;;;;;;;;;;;15.90;99.90;;;;;;5114843;28;20381;-45
2023/07/26 11:47:40;;;;;;;;;;;16.10;99.90;;;;;;5128239;28;20007;-44
2023/07/26 11:50:06;;;;;;;;;;;16.30;99.90;;;;;;5129476;27;19998;-43
2023/07/26 11:52:31;;;;;;;;;;;16.60;99.90;;;;;;5121271;27;19919;-45
2023/07/26 11:55:01;;;;;;;;;;;16.90;99.90;;;;;;5130053;28;19911;-44
2023/07/26 11:57:27;;;;;;;;;;;17.00;99.90;;;;;;5114614;28;20013;-44
2023/07/26 11:59:56;;;;;;;;;;;17.20;99.90;;;;;;5111183;28;20407;-44
2023/07/26 12:02:23;;;;;;;;;;;17.30;99.90;;;;;;5117050;27;19950;-44
2023/07/26 12:05:07;;;;;;;;;;;17.50;99.90;;;;;;5117843;27;19912;-44
2023/07/26 12:07:32;;;;;;;;;;;17.70;99.90;;;;;;5120828;28;19912;-45
2023/07/26 12:09:58;;;;;;;;;;;17.80;99.90;;;;;;5115144;28;20334;-46
2023/07/26 12:12:23;;;;;;;;;;;18.00;99.90;;;;;;5133091;28;19993;-44
2023/07/26 12:14:49;;;;;;;;;;;18.10;99.90;;;;;;5149184;27;19963;-44
2023/07/26 12:17:14;;;;;;;;;;;18.20;99.90;;;;;;5132342;28;19907;-45
2023/07/26 12:19:44;;;;;;;;;;;18.40;99.90;;;;;;5132305;28;19916;-47
2023/07/26 12:22:10;;;;;;;;;;;18.70;99.90;;;;;;5112082;28;20263;-43
2023/07/26 12:24:52;;;;;;;;;;;18.80;99.90;;;;;;5111034;28;20370;-43
2023/07/26 12:27:17;;;;;;;;;;;18.90;99.90;;;;;;5112768;27;19919;-43
2023/07/26 12:29:43;;;;;;;;;;;18.90;99.90;;;;;;5126670;27;19912;-44
2023/07/26 12:32:12;;;;;;;;;;;19.00;99.90;;;;;;5128496;27;19973;-45
2023/07/26 12:34:41;;;;;;;;;;;19.10;99.90;;;;;;5118008;27;19908;-42
2023/07/26 12:37:07;;;;;;;;;;;19.00;99.90;;;;;;5135540;27;20010;-43
2023/07/26 12:39:33;;;;;;;;;;;19.00;99.90;;;;;;5135933;27;20072;-45
2023/07/26 12:41:58;;;;;;;;;;;19.00;99.90;;;;;;5133768;27;19915;-43
2023/07/26 12:44:26;;;;;;;;;;;19.20;99.90;;;;;;5136722;27;19922;-44
2023/07/26 12:46:52;;;;;;;;;;;19.30;99.90;;;;;;5148630;27;19918;-45
2023/07/26 12:49:18;;;;;;;;;;;19.40;99.90;;;;;;5135144;27;19908;-44
2023/07/26 12:51:43;;;;;;;;;;;19.60;99.90;;;;;;5132198;27;20031;-41
2023/07/26 12:54:09;;;;;;;;;;;19.90;99.90;;;;;;5130873;27;20330;-42
2023/07/26 12:56:34;;;;;;;;;;;20.00;99.90;;;;;;5116519;27;19915;-43
2023/07/26 12:59:00;;;;;;;;;;;20.30;99.90;;;;;;5135650;27;20373;-42
2023/07/26 13:01:25;;;;;;;;;;;20.50;99.90;;;;;;5134462;27;19942;-44
2023/07/26 13:03:51;;;;;;;;;;;20.70;99.90;;;;;;5134641;27;20418;-45
2023/07/26 13:06:16;;;;;;;;;;;21.10;99.90;;;;;;5134452;27;20369;-44
2023/07/26 13:08:44;;;;;;;;;;;21.20;99.90;;;;;;5129263;27;19916;-43
2023/07/26 13:11:09;;;;;;;;;;;21.10;99.90;;;;;;5121523;27;19912;-52
2023/07/26 13:13:35;;;;;;;;;;;21.10;99.90;;;;;;5132248;27;19980;-47
2023/07/26 13:16:00;;;;;;;;;;;21.30;99.90;;;;;;5135322;27;19919;-44
2023/07/26 13:18:26;;;;;;;;;;;21.50;99.90;;;;;;5134653;27;19922;-44
2023/07/26 13:20:53;;;;;;;;;;;21.60;99.90;;;;;;5122649;27;19912;-46
2023/07/26 13:23:18;;;;;;;;;;;21.50;99.90;;;;;;5128675;27;19912;-45
2023/07/26 13:25:44;;;;;;;;;;;21.10;99.90;;;;;;5132530;27;19919;-45
2023/07/26 13:28:09;;;;;;;;;;;20.80;99.90;;;;;;5131048;27;19923;-44
2023/07/26 13:30:36;;;;;;;;;;;20.40;99.90;;;;;;5126272;27;19989;-44
2023/07/26 13:33:02;;;;;;;;;;;20.10;99.90;;;;;;5127285;27;19911;-45
2023/07/26 13:35:27;;;;;;;;;;;19.70;99.90;;;;;;5134281;27;20311;-44
2023/07/26 13:37:53;;;;;;;;;;;19.40;99.90;;;;;;5126765;27;20453;-44
2023/07/26 13:40:19;;;;;;;;;;;19.00;99.90;;;;;;5112634;27;19928;-43
2023/07/26 13:42:45;;;;;;;;;;;18.70;99.90;;;;;;5120900;27;19919;-45
2023/07/26 13:45:10;;;;;;;;;;;18.50;99.90;;;;;;5116015;27;19935;-43
2023/07/26 13:47:36;;;;;;;;;;;18.90;99.90;;;;;;5134020;27;19970;-45
2023/07/26 13:50:02;;;;;;;;;;;19.30;99.90;;;;;;5130222;27;20311;-44
2023/07/26 13:52:27;;;;;;;;;;;19.60;99.90;;;;;;5134269;27;19911;-43
2023/07/26 13:54:53;;;;;;;;;;;19.50;99.90;;;;;;5133959;27;19912;-42
2023/07/26 13:57:19;;;;;;;;;;;19.20;99.90;;;;;;5134141;27;19912;-44
2023/07/26 13:59:44;;;;;;;;;;;19.10;99.90;;;;;;5120077;27;19972;-44
2023/07/26 14:02:10;;;;;;;;;;;18.90;99.90;;;;;;5121648;27;20016;-45
2023/07/26 14:04:35;;;;;;;;;;;18.90;99.90;;;;;;5116918;27;19919;-44
2023/07/26 14:07:01;;;;;;;;;;;19.00;99.90;;;;;;5126929;27;19912;-43
2023/07/26 14:09:26;;;;;;;;;;;19.30;99.90;;;;;;5119906;27;19911;-45
2023/07/26 14:11:52;;;;;;;;;;;19.70;99.90;;;;;;5142438;27;19969;-43